Capitol Logistics 7448

Operating for MZN



KAFW
Fort Worth Alliance Airport
Fort Worth, Texas
KMIA
Miami International Airport
Miami, Florida

Activity Log

Date Flight Route Aircraft Duration
02/16/2019 CPX337 KUSSO5 ZALEA SWB HRV Q105 BLVNS Y290 BAGGS SSCOT5 B763 2h 33m

Route Details

Aircraft Information
Primary: Boeing 767-300BDSF
Backup: Airbus A300-600F
Route Data
Distance: 989nm
Duration: 3h 00m
Recm'd Route: KUSSO7 ZALEA AEX J58 HRV Q105 BLVNS Q102 CIGAR Y290 BAGGS SSCOT5
Origin Wx: KAFW 020453Z 02007KT 10SM -RA SCT120 OVC150 23/22 A3005 RMK AO2 SLP158 P0000 T02330222 $
Dest. Wx: KMIA 020453Z VRB04KT 10SM FEW028 FEW250 29/25 A3008 RMK AO2 SLP186 T02940250 403330272 $
Notes: